In Rescue
 
Open Full Screen Window  High Contrast Mode
Wind Gusting 00 knots
05
January 22, 2020 4:51 PM CST
Present Weather: Light Snow
Weather Information
Wind Direction
  160 °
Wind Speed
  05 kt (6 mph)
Wind Gust
  00 kt (0 mph)
Altimeter
29.88 in
Visibility
1 SM
Temperature
01° C
34° F
Dewpoint
01° C
34° F
Humidity
100%
1hr Rain Fall
00.02 in.
24hr Rain Fall
00.02 in.
Sky Condition
Broken @ 1,000 ft
Broken @ 600 ft
IFR

METAR KSGS 222251Z AUTO 16005KT 1SM -SN BKN006 BKN010 01/01 A2988 RMK AO2 P0002 T00060005 P0002

FAA Disclaimer: The data displayed is for advisory purposes only and is not to be used for flight planning or operations.